Terminal Aerodrome Forecast
Issued by NWS

Home | Current Version | Previous Version | Text Only | Print | Product List | Glossary On
Versions: 1 2 3 4 5 6 7 8 9 10 11 12 13 14 15 16 17 18 19 20 21 22 23 24 25 26 27 28
000
FTUS41 KBUF 162300
TAFJHW
TAF
KJHW 162334Z 1700/1724 28005KT P6SM SCT040
     FM170400 VRB03KT P6SM SCT015
     FM170700 VRB03KT 3SM BR BKN015
     FM171100 VRB03KT 2SM BR SCT003
     FM171300 23004KT P6SM SCT025
     FM171800 27006KT P6SM BKN035
      AMD LTD TO CLD VIS AND WIND=

USA.gov is the U.S. government's official web portal to all federal, state and local government web resources and services.